sensor_id;sensor_type;location;lat;lon;timestamp;P1;durP1;ratioP1;P2;durP2;ratioP2
9972;SDS011;5027;53.560;10.062;2022-08-21T00:01:37;7.57;;;4.50;;
9972;SDS011;5027;53.560;10.062;2022-08-21T00:04:08;10.90;;;4.40;;
9972;SDS011;5027;53.560;10.062;2022-08-21T00:06:39;7.70;;;4.07;;
9972;SDS011;5027;53.560;10.062;2022-08-21T00:09:07;6.50;;;4.03;;
9972;SDS011;5027;53.560;10.062;2022-08-21T00:11:35;6.67;;;4.77;;
9972;SDS011;5027;53.560;10.062;2022-08-21T00:14:04;8.33;;;4.67;;
9972;SDS011;5027;53.560;10.062;2022-08-21T00:16:32;7.87;;;4.80;;
9972;SDS011;5027;53.560;10.062;2022-08-21T00:18:59;7.70;;;5.03;;
9972;SDS011;5027;53.560;10.062;2022-08-21T00:21:26;7.90;;;4.60;;
9972;SDS011;5027;53.560;10.062;2022-08-21T00:23:53;7.93;;;4.67;;
9972;SDS011;5027;53.560;10.062;2022-08-21T00:26:20;6.90;;;4.30;;
9972;SDS011;5027;53.560;10.062;2022-08-21T00:28:46;5.80;;;4.33;;
9972;SDS011;5027;53.560;10.062;2022-08-21T00:31:15;9.57;;;4.53;;
9972;SDS011;5027;53.560;10.062;2022-08-21T00:33:42;9.00;;;4.77;;
9972;SDS011;5027;53.560;10.062;2022-08-21T00:36:09;6.93;;;4.83;;
9972;SDS011;5027;53.560;10.062;2022-08-21T00:38:36;6.67;;;4.43;;
9972;SDS011;5027;53.560;10.062;2022-08-21T00:41:04;6.10;;;4.20;;
9972;SDS011;5027;53.560;10.062;2022-08-21T00:43:53;9.00;;;5.37;;
9972;SDS011;5027;53.560;10.062;2022-08-21T00:46:20;7.23;;;4.67;;
9972;SDS011;5027;53.560;10.062;2022-08-21T00:48:53;6.17;;;4.97;;
9972;SDS011;5027;53.560;10.062;2022-08-21T00:54:14;9.80;;;5.37;;
9972;SDS011;5027;53.560;10.062;2022-08-21T00:56:44;6.57;;;4.70;;
9972;SDS011;5027;53.560;10.062;2022-08-21T00:59:14;7.33;;;4.90;;
9972;SDS011;5027;53.560;10.062;2022-08-21T01:01:43;8.57;;;5.13;;
9972;SDS011;5027;53.560;10.062;2022-08-21T01:04:09;8.93;;;5.00;;
9972;SDS011;5027;53.560;10.062;2022-08-21T01:06:37;6.67;;;4.73;;
9972;SDS011;5027;53.560;10.062;2022-08-21T01:09:04;6.33;;;5.03;;
9972;SDS011;5027;53.560;10.062;2022-08-21T01:11:31;11.20;;;5.77;;
9972;SDS011;5027;53.560;10.062;2022-08-21T01:13:57;8.47;;;4.90;;
9972;SDS011;5027;53.560;10.062;2022-08-21T01:16:24;8.33;;;4.80;;
9972;SDS011;5027;53.560;10.062;2022-08-21T01:18:51;9.23;;;4.90;;
9972;SDS011;5027;53.560;10.062;2022-08-21T01:21:20;6.27;;;4.53;;
9972;SDS011;5027;53.560;10.062;2022-08-21T01:23:54;8.97;;;5.03;;
9972;SDS011;5027;53.560;10.062;2022-08-21T01:26:25;7.40;;;5.33;;
9972;SDS011;5027;53.560;10.062;2022-08-21T01:31:33;9.57;;;4.90;;
9972;SDS011;5027;53.560;10.062;2022-08-21T01:34:00;6.20;;;4.67;;
9972;SDS011;5027;53.560;10.062;2022-08-21T01:36:27;7.40;;;4.87;;
9972;SDS011;5027;53.560;10.062;2022-08-21T01:38:54;6.13;;;5.00;;
9972;SDS011;5027;53.560;10.062;2022-08-21T01:41:21;6.50;;;4.90;;
9972;SDS011;5027;53.560;10.062;2022-08-21T01:43:48;8.67;;;4.93;;
9972;SDS011;5027;53.560;10.062;2022-08-21T01:46:15;6.53;;;4.43;;
9972;SDS011;5027;53.560;10.062;2022-08-21T01:48:42;7.37;;;4.53;;
9972;SDS011;5027;53.560;10.062;2022-08-21T01:51:11;6.70;;;4.60;;
9972;SDS011;5027;53.560;10.062;2022-08-21T01:53:38;8.27;;;4.73;;
9972;SDS011;5027;53.560;10.062;2022-08-21T01:56:08;9.87;;;4.17;;
9972;SDS011;5027;53.560;10.062;2022-08-21T01:58:38;5.83;;;4.37;;
9972;SDS011;5027;53.560;10.062;2022-08-21T02:01:06;6.37;;;4.37;;
9972;SDS011;5027;53.560;10.062;2022-08-21T02:03:33;5.57;;;4.33;;
9972;SDS011;5027;53.560;10.062;2022-08-21T02:06:02;8.80;;;4.70;;
9972;SDS011;5027;53.560;10.062;2022-08-21T02:08:30;8.53;;;4.50;;
9972;SDS011;5027;53.560;10.062;2022-08-21T02:10:58;8.97;;;4.97;;
9972;SDS011;5027;53.560;10.062;2022-08-21T02:13:25;11.63;;;4.97;;
9972;SDS011;5027;53.560;10.062;2022-08-21T02:15:52;7.57;;;4.77;;
9972;SDS011;5027;53.560;10.062;2022-08-21T02:18:18;7.93;;;4.13;;
9972;SDS011;5027;53.560;10.062;2022-08-21T02:20:47;7.33;;;4.23;;
9972;SDS011;5027;53.560;10.062;2022-08-21T02:23:21;8.60;;;4.07;;
9972;SDS011;5027;53.560;10.062;2022-08-21T02:25:53;7.67;;;4.20;;
9972;SDS011;5027;53.560;10.062;2022-08-21T02:28:20;6.87;;;4.33;;
9972;SDS011;5027;53.560;10.062;2022-08-21T02:30:48;7.13;;;4.27;;
9972;SDS011;5027;53.560;10.062;2022-08-21T02:33:15;6.87;;;4.00;;
9972;SDS011;5027;53.560;10.062;2022-08-21T02:35:43;7.37;;;4.33;;
9972;SDS011;5027;53.560;10.062;2022-08-21T02:38:13;6.00;;;3.80;;
9972;SDS011;5027;53.560;10.062;2022-08-21T02:40:44;7.07;;;4.07;;
9972;SDS011;5027;53.560;10.062;2022-08-21T02:43:13;6.00;;;3.87;;
9972;SDS011;5027;53.560;10.062;2022-08-21T02:45:42;6.53;;;4.00;;
9972;SDS011;5027;53.560;10.062;2022-08-21T02:48:11;6.87;;;4.13;;
9972;SDS011;5027;53.560;10.062;2022-08-21T02:50:43;7.20;;;3.73;;
9972;SDS011;5027;53.560;10.062;2022-08-21T02:53:13;6.20;;;3.70;;
9972;SDS011;5027;53.560;10.062;2022-08-21T02:55:44;8.00;;;4.10;;
9972;SDS011;5027;53.560;10.062;2022-08-21T02:58:13;4.87;;;3.63;;
9972;SDS011;5027;53.560;10.062;2022-08-21T03:00:41;6.53;;;4.00;;
9972;SDS011;5027;53.560;10.062;2022-08-21T03:03:09;6.50;;;3.50;;
9972;SDS011;5027;53.560;10.062;2022-08-21T03:05:36;5.27;;;3.50;;
9972;SDS011;5027;53.560;10.062;2022-08-21T03:08:04;5.10;;;3.97;;
9972;SDS011;5027;53.560;10.062;2022-08-21T03:10:36;8.03;;;3.63;;
9972;SDS011;5027;53.560;10.062;2022-08-21T03:13:05;6.67;;;3.50;;
9972;SDS011;5027;53.560;10.062;2022-08-21T03:15:32;6.13;;;3.83;;
9972;SDS011;5027;53.560;10.062;2022-08-21T03:17:59;5.47;;;3.33;;
9972;SDS011;5027;53.560;10.062;2022-08-21T03:20:27;5.23;;;3.40;;
9972;SDS011;5027;53.560;10.062;2022-08-21T03:22:55;6.07;;;3.83;;
9972;SDS011;5027;53.560;10.062;2022-08-21T03:25:23;6.03;;;3.57;;
9972;SDS011;5027;53.560;10.062;2022-08-21T03:28:06;6.87;;;3.87;;
9972;SDS011;5027;53.560;10.062;2022-08-21T03:30:39;5.00;;;3.70;;
9972;SDS011;5027;53.560;10.062;2022-08-21T03:33:07;7.23;;;3.30;;
9972;SDS011;5027;53.560;10.062;2022-08-21T03:35:38;4.33;;;3.67;;
9972;SDS011;5027;53.560;10.062;2022-08-21T03:38:05;5.33;;;3.60;;
9972;SDS011;5027;53.560;10.062;2022-08-21T03:40:31;7.53;;;3.90;;
9972;SDS011;5027;53.560;10.062;2022-08-21T03:42:58;7.73;;;3.80;;
9972;SDS011;5027;53.560;10.062;2022-08-21T03:45:25;5.43;;;3.83;;
9972;SDS011;5027;53.560;10.062;2022-08-21T03:50:19;7.90;;;3.63;;
9972;SDS011;5027;53.560;10.062;2022-08-21T03:52:45;6.57;;;3.70;;
9972;SDS011;5027;53.560;10.062;2022-08-21T03:55:12;6.37;;;3.80;;
9972;SDS011;5027;53.560;10.062;2022-08-21T03:57:39;5.97;;;4.30;;
9972;SDS011;5027;53.560;10.062;2022-08-21T04:00:05;6.40;;;3.40;;
9972;SDS011;5027;53.560;10.062;2022-08-21T04:02:35;5.70;;;3.30;;
9972;SDS011;5027;53.560;10.062;2022-08-21T04:05:02;5.80;;;3.83;;
9972;SDS011;5027;53.560;10.062;2022-08-21T04:07:29;4.93;;;4.03;;
9972;SDS011;5027;53.560;10.062;2022-08-21T04:09:56;5.70;;;3.40;;
9972;SDS011;5027;53.560;10.062;2022-08-21T04:12:23;8.23;;;4.00;;
9972;SDS011;5027;53.560;10.062;2022-08-21T04:14:49;4.80;;;3.90;;
9972;SDS011;5027;53.560;10.062;2022-08-21T04:17:19;6.63;;;4.07;;
9972;SDS011;5027;53.560;10.062;2022-08-21T04:19:46;5.97;;;3.20;;
9972;SDS011;5027;53.560;10.062;2022-08-21T04:22:18;6.33;;;4.10;;
9972;SDS011;5027;53.560;10.062;2022-08-21T04:24:45;6.33;;;3.60;;
9972;SDS011;5027;53.560;10.062;2022-08-21T04:27:12;5.97;;;3.73;;
9972;SDS011;5027;53.560;10.062;2022-08-21T04:29:38;6.90;;;4.07;;
9972;SDS011;5027;53.560;10.062;2022-08-21T04:32:05;6.43;;;3.90;;
9972;SDS011;5027;53.560;10.062;2022-08-21T04:34:32;5.13;;;3.90;;
9972;SDS011;5027;53.560;10.062;2022-08-21T04:36:59;8.13;;;3.83;;
9972;SDS011;5027;53.560;10.062;2022-08-21T04:39:25;5.50;;;4.00;;
9972;SDS011;5027;53.560;10.062;2022-08-21T04:41:54;5.23;;;3.43;;
9972;SDS011;5027;53.560;10.062;2022-08-21T04:44:22;8.57;;;4.57;;
9972;SDS011;5027;53.560;10.062;2022-08-21T04:46:49;6.27;;;3.70;;
9972;SDS011;5027;53.560;10.062;2022-08-21T04:49:16;8.10;;;3.43;;
9972;SDS011;5027;53.560;10.062;2022-08-21T04:51:44;6.13;;;3.40;;
9972;SDS011;5027;53.560;10.062;2022-08-21T04:54:14;7.97;;;3.67;;
9972;SDS011;5027;53.560;10.062;2022-08-21T04:56:52;7.17;;;3.43;;
9972;SDS011;5027;53.560;10.062;2022-08-21T04:59:23;6.07;;;3.63;;
9972;SDS011;5027;53.560;10.062;2022-08-21T05:01:57;5.77;;;3.77;;
9972;SDS011;5027;53.560;10.062;2022-08-21T05:04:27;5.33;;;3.67;;
9972;SDS011;5027;53.560;10.062;2022-08-21T05:06:57;4.43;;;3.13;;
9972;SDS011;5027;53.560;10.062;2022-08-21T05:09:28;6.43;;;3.77;;
9972;SDS011;5027;53.560;10.062;2022-08-21T05:11:55;5.90;;;3.63;;
9972;SDS011;5027;53.560;10.062;2022-08-21T05:14:22;4.53;;;3.37;;
9972;SDS011;5027;53.560;10.062;2022-08-21T05:16:49;5.77;;;3.53;;
9972;SDS011;5027;53.560;10.062;2022-08-21T05:19:15;6.27;;;3.63;;
9972;SDS011;5027;53.560;10.062;2022-08-21T05:21:43;7.80;;;3.73;;
9972;SDS011;5027;53.560;10.062;2022-08-21T05:24:11;5.57;;;3.73;;
9972;SDS011;5027;53.560;10.062;2022-08-21T05:26:37;4.13;;;3.57;;
9972;SDS011;5027;53.560;10.062;2022-08-21T05:29:12;9.17;;;3.90;;
9972;SDS011;5027;53.560;10.062;2022-08-21T05:31:41;7.33;;;3.33;;
9972;SDS011;5027;53.560;10.062;2022-08-21T05:34:08;8.43;;;3.77;;
9972;SDS011;5027;53.560;10.062;2022-08-21T05:36:35;7.27;;;3.77;;
9972;SDS011;5027;53.560;10.062;2022-08-21T05:39:02;4.10;;;3.03;;
9972;SDS011;5027;53.560;10.062;2022-08-21T05:41:29;7.43;;;3.37;;
9972;SDS011;5027;53.560;10.062;2022-08-21T05:43:59;8.10;;;3.30;;
9972;SDS011;5027;53.560;10.062;2022-08-21T05:46:26;5.60;;;3.70;;
9972;SDS011;5027;53.560;10.062;2022-08-21T05:48:53;4.67;;;3.70;;
9972;SDS011;5027;53.560;10.062;2022-08-21T05:51:19;5.80;;;3.53;;
9972;SDS011;5027;53.560;10.062;2022-08-21T05:53:46;5.20;;;3.63;;
9972;SDS011;5027;53.560;10.062;2022-08-21T05:56:13;5.20;;;3.27;;
9972;SDS011;5027;53.560;10.062;2022-08-21T05:58:40;5.00;;;3.80;;
9972;SDS011;5027;53.560;10.062;2022-08-21T06:01:07;8.10;;;3.60;;
9972;SDS011;5027;53.560;10.062;2022-08-21T06:03:36;4.13;;;3.10;;
9972;SDS011;5027;53.560;10.062;2022-08-21T06:06:05;6.67;;;3.57;;
9972;SDS011;5027;53.560;10.062;2022-08-21T06:08:32;4.90;;;3.20;;
9972;SDS011;5027;53.560;10.062;2022-08-21T06:11:00;5.37;;;3.40;;
9972;SDS011;5027;53.560;10.062;2022-08-21T06:13:29;6.43;;;3.47;;
9972;SDS011;5027;53.560;10.062;2022-08-21T06:16:03;4.40;;;3.10;;
9972;SDS011;5027;53.560;10.062;2022-08-21T06:18:42;8.30;;;3.40;;
9972;SDS011;5027;53.560;10.062;2022-08-21T06:21:10;5.40;;;3.00;;
9972;SDS011;5027;53.560;10.062;2022-08-21T06:23:37;4.83;;;3.23;;
9972;SDS011;5027;53.560;10.062;2022-08-21T06:26:05;5.47;;;3.50;;
9972;SDS011;5027;53.560;10.062;2022-08-21T06:28:33;4.67;;;2.87;;
9972;SDS011;5027;53.560;10.062;2022-08-21T06:31:00;4.63;;;3.50;;
9972;SDS011;5027;53.560;10.062;2022-08-21T06:33:27;8.17;;;3.50;;
9972;SDS011;5027;53.560;10.062;2022-08-21T06:35:58;5.30;;;3.43;;
9972;SDS011;5027;53.560;10.062;2022-08-21T06:38:24;4.77;;;3.03;;
9972;SDS011;5027;53.560;10.062;2022-08-21T06:40:51;4.77;;;3.43;;
9972;SDS011;5027;53.560;10.062;2022-08-21T06:43:18;4.33;;;2.97;;
9972;SDS011;5027;53.560;10.062;2022-08-21T06:45:44;5.47;;;3.17;;
9972;SDS011;5027;53.560;10.062;2022-08-21T06:48:11;7.67;;;3.67;;
9972;SDS011;5027;53.560;10.062;2022-08-21T06:50:44;6.70;;;3.30;;
9972;SDS011;5027;53.560;10.062;2022-08-21T06:53:12;4.60;;;2.97;;
9972;SDS011;5027;53.560;10.062;2022-08-21T06:55:40;4.27;;;3.20;;
9972;SDS011;5027;53.560;10.062;2022-08-21T06:58:08;4.43;;;2.87;;
9972;SDS011;5027;53.560;10.062;2022-08-21T07:00:38;5.57;;;2.93;;
9972;SDS011;5027;53.560;10.062;2022-08-21T07:03:06;6.67;;;3.03;;
9972;SDS011;5027;53.560;10.062;2022-08-21T07:05:33;5.57;;;3.20;;
9972;SDS011;5027;53.560;10.062;2022-08-21T07:08:00;5.77;;;3.60;;
9972;SDS011;5027;53.560;10.062;2022-08-21T07:10:26;5.70;;;3.13;;
9972;SDS011;5027;53.560;10.062;2022-08-21T07:12:54;4.33;;;2.93;;
9972;SDS011;5027;53.560;10.062;2022-08-21T07:15:26;5.03;;;2.80;;
9972;SDS011;5027;53.560;10.062;2022-08-21T07:17:55;4.20;;;2.53;;
9972;SDS011;5027;53.560;10.062;2022-08-21T07:20:23;6.47;;;3.00;;
9972;SDS011;5027;53.560;10.062;2022-08-21T07:22:50;4.10;;;2.90;;
9972;SDS011;5027;53.560;10.062;2022-08-21T07:25:17;6.60;;;3.40;;
9972;SDS011;5027;53.560;10.062;2022-08-21T07:27:43;5.53;;;2.77;;
9972;SDS011;5027;53.560;10.062;2022-08-21T07:30:10;8.13;;;3.50;;
9972;SDS011;5027;53.560;10.062;2022-08-21T07:32:37;4.40;;;2.83;;
9972;SDS011;5027;53.560;10.062;2022-08-21T07:35:04;6.33;;;3.37;;
9972;SDS011;5027;53.560;10.062;2022-08-21T07:37:31;6.80;;;3.03;;
9972;SDS011;5027;53.560;10.062;2022-08-21T07:39:57;4.93;;;3.00;;
9972;SDS011;5027;53.560;10.062;2022-08-21T07:42:24;5.60;;;2.93;;
9972;SDS011;5027;53.560;10.062;2022-08-21T07:44:51;4.87;;;2.77;;
9972;SDS011;5027;53.560;10.062;2022-08-21T07:47:21;5.73;;;2.90;;
9972;SDS011;5027;53.560;10.062;2022-08-21T07:50:07;6.33;;;3.17;;
9972;SDS011;5027;53.560;10.062;2022-08-21T07:52:34;4.13;;;3.10;;
9972;SDS011;5027;53.560;10.062;2022-08-21T07:55:01;5.33;;;2.77;;
9972;SDS011;5027;53.560;10.062;2022-08-21T07:57:32;5.03;;;2.57;;
9972;SDS011;5027;53.560;10.062;2022-08-21T07:59:59;5.70;;;3.37;;
9972;SDS011;5027;53.560;10.062;2022-08-21T08:02:26;6.50;;;2.90;;
9972;SDS011;5027;53.560;10.062;2022-08-21T08:04:58;5.93;;;3.30;;
9972;SDS011;5027;53.560;10.062;2022-08-21T08:07:28;5.57;;;2.50;;
9972;SDS011;5027;53.560;10.062;2022-08-21T08:09:55;6.83;;;3.00;;
9972;SDS011;5027;53.560;10.062;2022-08-21T08:12:22;7.77;;;2.80;;
9972;SDS011;5027;53.560;10.062;2022-08-21T08:14:48;6.73;;;2.90;;
9972;SDS011;5027;53.560;10.062;2022-08-21T08:17:15;3.00;;;2.60;;
9972;SDS011;5027;53.560;10.062;2022-08-21T08:19:42;5.33;;;3.00;;
9972;SDS011;5027;53.560;10.062;2022-08-21T08:22:12;5.80;;;3.07;;
9972;SDS011;5027;53.560;10.062;2022-08-21T08:24:45;5.30;;;3.10;;
9972;SDS011;5027;53.560;10.062;2022-08-21T08:27:13;6.33;;;3.13;;
9972;SDS011;5027;53.560;10.062;2022-08-21T08:29:40;7.40;;;2.80;;
9972;SDS011;5027;53.560;10.062;2022-08-21T08:32:07;8.03;;;2.90;;
9972;SDS011;5027;53.560;10.062;2022-08-21T08:34:35;8.57;;;3.13;;
9972;SDS011;5027;53.560;10.062;2022-08-21T08:37:03;5.57;;;2.83;;
9972;SDS011;5027;53.560;10.062;2022-08-21T08:39:33;4.57;;;2.77;;
9972;SDS011;5027;53.560;10.062;2022-08-21T08:42:07;3.70;;;2.70;;
9972;SDS011;5027;53.560;10.062;2022-08-21T08:45:10;5.00;;;2.70;;
9972;SDS011;5027;53.560;10.062;2022-08-21T08:47:39;4.00;;;2.63;;
9972;SDS011;5027;53.560;10.062;2022-08-21T08:50:19;6.90;;;2.93;;
9972;SDS011;5027;53.560;10.062;2022-08-21T08:53:10;6.83;;;2.97;;
9972;SDS011;5027;53.560;10.062;2022-08-21T08:55:42;7.70;;;3.20;;
9972;SDS011;5027;53.560;10.062;2022-08-21T08:58:22;9.30;;;3.23;;
9972;SDS011;5027;53.560;10.062;2022-08-21T09:00:52;5.60;;;3.17;;
9972;SDS011;5027;53.560;10.062;2022-08-21T09:03:22;7.47;;;3.83;;
9972;SDS011;5027;53.560;10.062;2022-08-21T09:05:54;6.83;;;3.60;;
9972;SDS011;5027;53.560;10.062;2022-08-21T09:14:33;8.13;;;3.07;;
9972;SDS011;5027;53.560;10.062;2022-08-21T09:17:23;5.33;;;3.33;;
9972;SDS011;5027;53.560;10.062;2022-08-21T09:23:36;11.27;;;3.93;;
9972;SDS011;5027;53.560;10.062;2022-08-21T09:26:14;6.57;;;3.33;;
9972;SDS011;5027;53.560;10.062;2022-08-21T09:28:46;9.00;;;3.30;;
9972;SDS011;5027;53.560;10.062;2022-08-21T09:31:27;10.20;;;3.97;;
9972;SDS011;5027;53.560;10.062;2022-08-21T09:33:57;6.40;;;3.50;;
9972;SDS011;5027;53.560;10.062;2022-08-21T09:36:33;7.57;;;3.60;;
9972;SDS011;5027;53.560;10.062;2022-08-21T09:39:05;10.33;;;4.37;;
9972;SDS011;5027;53.560;10.062;2022-08-21T09:41:33;3.27;;;2.33;;
9972;SDS011;5027;53.560;10.062;2022-08-21T09:44:02;10.90;;;3.90;;
9972;SDS011;5027;53.560;10.062;2022-08-21T09:46:30;9.03;;;4.03;;
9972;SDS011;5027;53.560;10.062;2022-08-21T09:48:58;8.13;;;4.27;;
9972;SDS011;5027;53.560;10.062;2022-08-21T09:51:34;8.63;;;3.70;;
9972;SDS011;5027;53.560;10.062;2022-08-21T09:56:34;7.83;;;4.00;;
9972;SDS011;5027;53.560;10.062;2022-08-21T09:59:30;9.03;;;3.80;;
9972;SDS011;5027;53.560;10.062;2022-08-21T10:04:54;10.13;;;4.30;;
9972;SDS011;5027;53.560;10.062;2022-08-21T10:07:28;10.17;;;4.07;;
9972;SDS011;5027;53.560;10.062;2022-08-21T10:10:07;13.73;;;4.83;;
9972;SDS011;5027;53.560;10.062;2022-08-21T10:24:00;8.83;;;3.60;;
9972;SDS011;5027;53.560;10.062;2022-08-21T10:29:28;6.80;;;3.00;;
9972;SDS011;5027;53.560;10.062;2022-08-21T10:37:52;7.00;;;3.43;;
9972;SDS011;5027;53.560;10.062;2022-08-21T10:40:36;9.03;;;3.77;;
9972;SDS011;5027;53.560;10.062;2022-08-21T10:43:32;6.97;;;3.00;;
9972;SDS011;5027;53.560;10.062;2022-08-21T10:46:25;6.53;;;3.70;;
9972;SDS011;5027;53.560;10.062;2022-08-21T10:49:16;9.57;;;3.73;;
9972;SDS011;5027;53.560;10.062;2022-08-21T10:51:51;11.17;;;4.10;;
9972;SDS011;5027;53.560;10.062;2022-08-21T10:54:37;8.37;;;3.50;;
9972;SDS011;5027;53.560;10.062;2022-08-21T11:00:10;9.07;;;3.30;;
9972;SDS011;5027;53.560;10.062;2022-08-21T11:02:49;9.10;;;3.20;;
9972;SDS011;5027;53.560;10.062;2022-08-21T11:05:19;7.03;;;3.40;;
9972;SDS011;5027;53.560;10.062;2022-08-21T11:07:55;6.80;;;3.37;;
9972;SDS011;5027;53.560;10.062;2022-08-21T11:18:53;16.07;;;3.70;;
9972;SDS011;5027;53.560;10.062;2022-08-21T11:21:29;4.80;;;3.03;;
9972;SDS011;5027;53.560;10.062;2022-08-21T11:24:15;5.90;;;3.10;;
9972;SDS011;5027;53.560;10.062;2022-08-21T11:26:52;4.13;;;2.80;;
9972;SDS011;5027;53.560;10.062;2022-08-21T11:29:33;5.00;;;3.17;;
9972;SDS011;5027;53.560;10.062;2022-08-21T11:40:31;8.47;;;3.87;;
9972;SDS011;5027;53.560;10.062;2022-08-21T11:43:36;4.43;;;2.73;;
9972;SDS011;5027;53.560;10.062;2022-08-21T11:46:25;5.10;;;2.87;;
9972;SDS011;5027;53.560;10.062;2022-08-21T11:57:18;4.07;;;2.73;;
9972;SDS011;5027;53.560;10.062;2022-08-21T12:02:45;7.33;;;3.23;;
9972;SDS011;5027;53.560;10.062;2022-08-21T12:05:29;4.30;;;3.17;;
9972;SDS011;5027;53.560;10.062;2022-08-21T12:08:00;6.97;;;3.23;;
9972;SDS011;5027;53.560;10.062;2022-08-21T12:10:32;4.37;;;2.80;;
9972;SDS011;5027;53.560;10.062;2022-08-21T12:13:09;3.37;;;2.60;;
9972;SDS011;5027;53.560;10.062;2022-08-21T12:16:10;3.73;;;2.50;;
9972;SDS011;5027;53.560;10.062;2022-08-21T12:18:42;6.13;;;3.27;;
9972;SDS011;5027;53.560;10.062;2022-08-21T12:21:23;5.37;;;3.13;;
9972;SDS011;5027;53.560;10.062;2022-08-21T12:26:52;5.33;;;3.10;;
9972;SDS011;5027;53.560;10.062;2022-08-21T12:29:25;6.27;;;4.50;;
9972;SDS011;5027;53.560;10.062;2022-08-21T12:31:59;7.33;;;2.97;;
9972;SDS011;5027;53.560;10.062;2022-08-21T12:34:48;4.80;;;3.13;;
9972;SDS011;5027;53.560;10.062;2022-08-21T12:37:57;6.47;;;2.77;;
9972;SDS011;5027;53.560;10.062;2022-08-21T12:40:43;3.53;;;2.60;;
9972;SDS011;5027;53.560;10.062;2022-08-21T12:43:16;3.60;;;2.43;;
9972;SDS011;5027;53.560;10.062;2022-08-21T12:45:48;4.37;;;3.03;;
9972;SDS011;5027;53.560;10.062;2022-08-21T12:48:28;5.37;;;3.30;;
9972;SDS011;5027;53.560;10.062;2022-08-21T12:51:07;5.50;;;2.80;;
9972;SDS011;5027;53.560;10.062;2022-08-21T12:53:45;4.63;;;3.00;;
9972;SDS011;5027;53.560;10.062;2022-08-21T12:56:18;6.00;;;4.53;;
9972;SDS011;5027;53.560;10.062;2022-08-21T12:58:49;6.40;;;2.70;;
9972;SDS011;5027;53.560;10.062;2022-08-21T13:01:23;3.90;;;2.50;;
9972;SDS011;5027;53.560;10.062;2022-08-21T13:04:18;5.13;;;2.67;;
9972;SDS011;5027;53.560;10.062;2022-08-21T13:06:48;2.70;;;2.33;;
9972;SDS011;5027;53.560;10.062;2022-08-21T13:09:19;3.77;;;2.43;;
9972;SDS011;5027;53.560;10.062;2022-08-21T13:11:51;3.23;;;2.30;;
9972;SDS011;5027;53.560;10.062;2022-08-21T13:14:23;5.97;;;3.83;;
9972;SDS011;5027;53.560;10.062;2022-08-21T13:16:57;5.30;;;3.70;;
9972;SDS011;5027;53.560;10.062;2022-08-21T13:19:25;5.30;;;4.80;;
9972;SDS011;5027;53.560;10.062;2022-08-21T13:21:52;5.23;;;3.00;;
9972;SDS011;5027;53.560;10.062;2022-08-21T13:24:20;5.40;;;4.27;;
9972;SDS011;5027;53.560;10.062;2022-08-21T13:27:19;6.07;;;3.03;;
9972;SDS011;5027;53.560;10.062;2022-08-21T13:29:48;3.47;;;2.73;;
9972;SDS011;5027;53.560;10.062;2022-08-21T13:32:26;4.77;;;2.73;;
9972;SDS011;5027;53.560;10.062;2022-08-21T13:34:57;3.90;;;2.60;;
9972;SDS011;5027;53.560;10.062;2022-08-21T13:37:25;4.27;;;3.70;;
9972;SDS011;5027;53.560;10.062;2022-08-21T13:39:55;4.67;;;3.57;;
9972;SDS011;5027;53.560;10.062;2022-08-21T13:42:21;4.67;;;3.33;;
9972;SDS011;5027;53.560;10.062;2022-08-21T13:44:50;3.40;;;2.60;;
9972;SDS011;5027;53.560;10.062;2022-08-21T13:47:19;4.43;;;3.00;;
9972;SDS011;5027;53.560;10.062;2022-08-21T13:49:48;3.83;;;2.33;;
9972;SDS011;5027;53.560;10.062;2022-08-21T13:52:25;3.17;;;2.73;;
9972;SDS011;5027;53.560;10.062;2022-08-21T13:54:57;3.70;;;3.40;;
9972;SDS011;5027;53.560;10.062;2022-08-21T13:57:27;3.60;;;3.30;;
9972;SDS011;5027;53.560;10.062;2022-08-21T14:00:12;3.40;;;2.50;;
9972;SDS011;5027;53.560;10.062;2022-08-21T14:02:40;2.40;;;2.20;;
9972;SDS011;5027;53.560;10.062;2022-08-21T14:05:14;5.20;;;2.23;;
9972;SDS011;5027;53.560;10.062;2022-08-21T14:08:07;3.07;;;2.70;;
9972;SDS011;5027;53.560;10.062;2022-08-21T14:10:48;4.60;;;2.63;;
9972;SDS011;5027;53.560;10.062;2022-08-21T14:13:42;3.53;;;2.47;;
9972;SDS011;5027;53.560;10.062;2022-08-21T14:16:44;2.70;;;2.40;;
9972;SDS011;5027;53.560;10.062;2022-08-21T14:19:20;3.80;;;2.90;;
9972;SDS011;5027;53.560;10.062;2022-08-21T14:21:51;4.23;;;2.70;;
9972;SDS011;5027;53.560;10.062;2022-08-21T14:27:06;4.53;;;2.77;;
9972;SDS011;5027;53.560;10.062;2022-08-21T14:29:35;3.50;;;2.30;;
9972;SDS011;5027;53.560;10.062;2022-08-21T14:32:30;3.63;;;2.33;;
9972;SDS011;5027;53.560;10.062;2022-08-21T14:35:02;4.63;;;2.60;;
9972;SDS011;5027;53.560;10.062;2022-08-21T14:37:29;4.47;;;2.70;;
9972;SDS011;5027;53.560;10.062;2022-08-21T14:39:55;4.13;;;1.93;;
9972;SDS011;5027;53.560;10.062;2022-08-21T14:42:22;5.93;;;2.33;;
9972;SDS011;5027;53.560;10.062;2022-08-21T14:44:50;3.73;;;2.40;;
9972;SDS011;5027;53.560;10.062;2022-08-21T14:47:17;4.33;;;3.47;;
9972;SDS011;5027;53.560;10.062;2022-08-21T14:49:44;4.57;;;3.30;;
9972;SDS011;5027;53.560;10.062;2022-08-21T14:52:10;3.83;;;2.83;;
9972;SDS011;5027;53.560;10.062;2022-08-21T14:54:37;4.27;;;2.90;;
9972;SDS011;5027;53.560;10.062;2022-08-21T14:57:08;5.40;;;4.00;;
9972;SDS011;5027;53.560;10.062;2022-08-21T14:59:36;5.67;;;3.43;;
9972;SDS011;5027;53.560;10.062;2022-08-21T15:02:03;3.60;;;3.10;;
9972;SDS011;5027;53.560;10.062;2022-08-21T15:04:31;3.30;;;3.00;;
9972;SDS011;5027;53.560;10.062;2022-08-21T15:06:58;4.10;;;2.57;;
9972;SDS011;5027;53.560;10.062;2022-08-21T15:09:26;3.67;;;2.57;;
9972;SDS011;5027;53.560;10.062;2022-08-21T15:11:53;4.07;;;2.80;;
9972;SDS011;5027;53.560;10.062;2022-08-21T15:14:24;3.23;;;2.57;;
9972;SDS011;5027;53.560;10.062;2022-08-21T15:16:52;3.33;;;2.63;;
9972;SDS011;5027;53.560;10.062;2022-08-21T15:19:19;3.80;;;3.23;;
9972;SDS011;5027;53.560;10.062;2022-08-21T15:21:46;3.23;;;2.70;;
9972;SDS011;5027;53.560;10.062;2022-08-21T15:24:12;4.67;;;2.80;;
9972;SDS011;5027;53.560;10.062;2022-08-21T15:26:39;3.43;;;2.70;;
9972;SDS011;5027;53.560;10.062;2022-08-21T15:29:07;4.50;;;2.50;;
9972;SDS011;5027;53.560;10.062;2022-08-21T15:31:35;5.80;;;2.83;;
9972;SDS011;5027;53.560;10.062;2022-08-21T15:34:02;5.87;;;2.63;;
9972;SDS011;5027;53.560;10.062;2022-08-21T15:36:29;4.23;;;3.47;;
9972;SDS011;5027;53.560;10.062;2022-08-21T15:38:55;4.23;;;3.83;;
9972;SDS011;5027;53.560;10.062;2022-08-21T15:41:22;3.73;;;3.43;;
9972;SDS011;5027;53.560;10.062;2022-08-21T15:43:50;4.20;;;2.27;;
9972;SDS011;5027;53.560;10.062;2022-08-21T15:46:19;5.60;;;2.50;;
9972;SDS011;5027;53.560;10.062;2022-08-21T15:48:46;3.60;;;3.30;;
9972;SDS011;5027;53.560;10.062;2022-08-21T15:51:14;3.63;;;2.40;;
9972;SDS011;5027;53.560;10.062;2022-08-21T15:53:43;5.33;;;2.53;;
9972;SDS011;5027;53.560;10.062;2022-08-21T15:56:19;3.50;;;2.40;;
9972;SDS011;5027;53.560;10.062;2022-08-21T15:58:49;3.20;;;2.73;;
9972;SDS011;5027;53.560;10.062;2022-08-21T16:01:17;4.13;;;2.63;;
9972;SDS011;5027;53.560;10.062;2022-08-21T16:03:46;3.43;;;2.13;;
9972;SDS011;5027;53.560;10.062;2022-08-21T16:06:15;4.73;;;2.57;;
9972;SDS011;5027;53.560;10.062;2022-08-21T16:08:42;3.93;;;2.50;;
9972;SDS011;5027;53.560;10.062;2022-08-21T16:11:09;2.70;;;2.27;;
9972;SDS011;5027;53.560;10.062;2022-08-21T16:13:40;3.53;;;2.30;;
9972;SDS011;5027;53.560;10.062;2022-08-21T16:16:11;2.47;;;2.27;;
9972;SDS011;5027;53.560;10.062;2022-08-21T16:18:41;5.27;;;3.17;;
9972;SDS011;5027;53.560;10.062;2022-08-21T16:21:08;3.50;;;3.20;;
9972;SDS011;5027;53.560;10.062;2022-08-21T16:23:35;4.03;;;2.50;;
9972;SDS011;5027;53.560;10.062;2022-08-21T16:26:03;3.57;;;2.30;;
9972;SDS011;5027;53.560;10.062;2022-08-21T16:28:34;3.93;;;2.13;;
9972;SDS011;5027;53.560;10.062;2022-08-21T16:31:03;2.67;;;2.43;;
9972;SDS011;5027;53.560;10.062;2022-08-21T16:33:41;5.27;;;2.50;;
9972;SDS011;5027;53.560;10.062;2022-08-21T16:36:10;3.03;;;2.60;;
9972;SDS011;5027;53.560;10.062;2022-08-21T16:38:37;10.03;;;3.40;;
9972;SDS011;5027;53.560;10.062;2022-08-21T16:41:05;6.03;;;2.80;;
9972;SDS011;5027;53.560;10.062;2022-08-21T16:43:38;3.23;;;3.03;;